sensor_id;sensor_type;location;lat;lon;timestamp;pressure;altitude;pressure_sealevel;temperature;humidity
68137;BME280;54939;50.826;9.030;2022-08-25T00:00:13;98875.50;;;27.78;36.54
68137;BME280;54939;50.826;9.030;2022-08-25T00:00:44;98869.19;;;27.77;36.68
68137;BME280;54939;50.826;9.030;2022-08-25T00:01:17;98863.44;;;27.79;36.42
68137;BME280;54939;50.826;9.030;2022-08-25T00:01:55;98867.81;;;27.80;36.44
68137;BME280;54939;50.826;9.030;2022-08-25T00:02:25;98865.34;;;27.78;36.87
68137;BME280;54939;50.826;9.030;2022-08-25T00:02:55;98866.44;;;27.77;36.64
68137;BME280;54939;50.826;9.030;2022-08-25T00:03:26;98862.63;;;27.78;36.82
68137;BME280;54939;50.826;9.030;2022-08-25T00:03:57;98869.19;;;27.77;36.68
68137;BME280;54939;50.826;9.030;2022-08-25T00:04:27;98866.44;;;27.77;36.70
68137;BME280;54939;50.826;9.030;2022-08-25T00:04:58;98866.44;;;27.77;36.70
68137;BME280;54939;50.826;9.030;2022-08-25T00:05:28;98873.00;;;27.76;36.86
68137;BME280;54939;50.826;9.030;2022-08-25T00:05:58;98864.78;;;27.76;36.88
68137;BME280;54939;50.826;9.030;2022-08-25T00:06:29;98865.63;;;27.77;36.52
68137;BME280;54939;50.826;9.030;2022-08-25T00:07:00;98868.34;;;27.77;36.72
68137;BME280;54939;50.826;9.030;2022-08-25T00:07:30;98866.44;;;27.77;36.76
68137;BME280;54939;50.826;9.030;2022-08-25T00:08:00;98866.44;;;27.77;36.64
68137;BME280;54939;50.826;9.030;2022-08-25T00:08:31;98864.53;;;27.78;36.83
68137;BME280;54939;50.826;9.030;2022-08-25T00:09:04;98862.63;;;27.78;36.77
68137;BME280;54939;50.826;9.030;2022-08-25T00:09:34;98867.03;;;27.79;36.85
68137;BME280;54939;50.826;9.030;2022-08-25T00:10:05;98862.63;;;27.78;36.56
68137;BME280;54939;50.826;9.030;2022-08-25T00:10:36;98865.06;;;27.80;36.77
68137;BME280;54939;50.826;9.030;2022-08-25T00:11:11;98873.31;;;27.80;36.76
68137;BME280;54939;50.826;9.030;2022-08-25T00:11:41;98862.34;;;27.80;36.50
68137;BME280;54939;50.826;9.030;2022-08-25T00:12:12;98864.28;;;27.79;36.45
68137;BME280;54939;50.826;9.030;2022-08-25T00:12:42;98871.38;;;27.80;36.54
68137;BME280;54939;50.826;9.030;2022-08-25T00:13:12;98867.03;;;27.79;36.51
68137;BME280;54939;50.826;9.030;2022-08-25T00:13:43;98870.56;;;27.80;36.81
68137;BME280;54939;50.826;9.030;2022-08-25T00:14:16;98868.66;;;27.80;36.47
68137;BME280;54939;50.826;9.030;2022-08-25T00:14:46;98868.66;;;27.80;36.46
68137;BME280;54939;50.826;9.030;2022-08-25T00:15:16;98869.47;;;27.81;36.68
68137;BME280;54939;50.826;9.030;2022-08-25T00:15:46;98874.13;;;27.80;36.46
68137;BME280;54939;50.826;9.030;2022-08-25T00:16:17;98867.03;;;27.79;36.61
68137;BME280;54939;50.826;9.030;2022-08-25T00:16:48;98865.06;;;27.80;36.85
68137;BME280;54939;50.826;9.030;2022-08-25T00:17:18;98866.72;;;27.81;36.79
68137;BME280;54939;50.826;9.030;2022-08-25T00:17:48;98870.56;;;27.80;36.74
68137;BME280;54939;50.826;9.030;2022-08-25T00:18:19;98873.31;;;27.80;36.54
68137;BME280;54939;50.826;9.030;2022-08-25T00:18:51;98864.53;;;27.78;36.78
68137;BME280;54939;50.826;9.030;2022-08-25T00:19:23;98869.75;;;27.79;36.55
68137;BME280;54939;50.826;9.030;2022-08-25T00:19:54;98867.81;;;27.80;36.83
68137;BME280;54939;50.826;9.030;2022-08-25T00:20:25;98870.00;;;27.78;36.72
68137;BME280;54939;50.826;9.030;2022-08-25T00:20:55;98866.44;;;27.77;36.62
68137;BME280;54939;50.826;9.030;2022-08-25T00:21:26;98872.75;;;27.78;36.63
68137;BME280;54939;50.826;9.030;2022-08-25T00:21:56;98870.84;;;27.78;36.57
68137;BME280;54939;50.826;9.030;2022-08-25T00:22:26;98868.94;;;27.79;36.67
68137;BME280;54939;50.826;9.030;2022-08-25T00:22:57;98870.84;;;27.78;36.91
68137;BME280;54939;50.826;9.030;2022-08-25T00:23:27;98872.75;;;27.78;36.74
68137;BME280;54939;50.826;9.030;2022-08-25T00:23:58;98868.94;;;27.79;36.66
68137;BME280;54939;50.826;9.030;2022-08-25T00:24:28;98871.69;;;27.79;36.49
68137;BME280;54939;50.826;9.030;2022-08-25T00:24:59;98870.84;;;27.78;36.81
68137;BME280;54939;50.826;9.030;2022-08-25T00:25:29;98871.94;;;27.77;36.64
68137;BME280;54939;50.826;9.030;2022-08-25T00:26:00;98874.41;;;27.79;36.88
68137;BME280;54939;50.826;9.030;2022-08-25T00:26:30;98872.75;;;27.78;36.79
68137;BME280;54939;50.826;9.030;2022-08-25T00:27:01;98868.09;;;27.78;36.73
68137;BME280;54939;50.826;9.030;2022-08-25T00:27:31;98873.59;;;27.78;36.99
68137;BME280;54939;50.826;9.030;2022-08-25T00:28:01;98873.59;;;27.78;36.65
68137;BME280;54939;50.826;9.030;2022-08-25T00:28:32;98876.34;;;27.78;36.52
68137;BME280;54939;50.826;9.030;2022-08-25T00:29:02;98875.75;;;27.76;36.62
68137;BME280;54939;50.826;9.030;2022-08-25T00:29:33;98876.34;;;27.78;36.95
68137;BME280;54939;50.826;9.030;2022-08-25T00:30:03;98878.50;;;27.76;37.00
68137;BME280;54939;50.826;9.030;2022-08-25T00:30:34;98868.34;;;27.77;36.77
68137;BME280;54939;50.826;9.030;2022-08-25T00:31:05;98873.84;;;27.77;36.64
68137;BME280;54939;50.826;9.030;2022-08-25T00:31:36;98870.84;;;27.78;36.54
68137;BME280;54939;50.826;9.030;2022-08-25T00:32:06;98872.75;;;27.78;36.80
68137;BME280;54939;50.826;9.030;2022-08-25T00:32:36;98874.41;;;27.79;36.82
68137;BME280;54939;50.826;9.030;2022-08-25T00:33:06;98871.69;;;27.79;36.60
68137;BME280;54939;50.826;9.030;2022-08-25T00:33:37;98871.69;;;27.79;36.74
68137;BME280;54939;50.826;9.030;2022-08-25T00:34:09;98870.84;;;27.78;36.68
68137;BME280;54939;50.826;9.030;2022-08-25T00:34:40;98866.19;;;27.79;36.74
68137;BME280;54939;50.826;9.030;2022-08-25T00:35:11;98868.09;;;27.78;36.50
68137;BME280;54939;50.826;9.030;2022-08-25T00:35:41;98865.34;;;27.78;36.46
68137;BME280;54939;50.826;9.030;2022-08-25T00:36:11;98861.78;;;27.78;36.91
68137;BME280;54939;50.826;9.030;2022-08-25T00:36:42;98871.38;;;27.80;36.75
68137;BME280;54939;50.826;9.030;2022-08-25T00:37:12;98869.75;;;27.79;36.55
68137;BME280;54939;50.826;9.030;2022-08-25T00:37:44;98872.22;;;27.81;36.86
68137;BME280;54939;50.826;9.030;2022-08-25T00:38:14;98869.75;;;27.79;36.54
68137;BME280;54939;50.826;9.030;2022-08-25T00:38:45;98864.28;;;27.79;36.90
68137;BME280;54939;50.826;9.030;2022-08-25T00:39:17;98872.22;;;27.81;36.66
68137;BME280;54939;50.826;9.030;2022-08-25T00:39:47;98871.38;;;27.80;36.83
68137;BME280;54939;50.826;9.030;2022-08-25T00:40:17;98872.22;;;27.81;36.81
68137;BME280;54939;50.826;9.030;2022-08-25T00:40:47;98870.56;;;27.80;36.77
68137;BME280;54939;50.826;9.030;2022-08-25T00:41:34;98873.31;;;27.80;36.68
68137;BME280;54939;50.826;9.030;2022-08-25T00:42:05;98871.38;;;27.80;36.81
68137;BME280;54939;50.826;9.030;2022-08-25T00:42:36;98868.66;;;27.80;36.69
68137;BME280;54939;50.826;9.030;2022-08-25T00:43:07;98876.03;;;27.80;36.60
68137;BME280;54939;50.826;9.030;2022-08-25T00:44:11;98867.81;;;27.80;36.54
68137;BME280;54939;50.826;9.030;2022-08-25T00:44:43;98872.22;;;27.81;36.84
68137;BME280;54939;50.826;9.030;2022-08-25T00:45:13;98865.91;;;27.80;36.82
68137;BME280;54939;50.826;9.030;2022-08-25T00:45:43;98868.66;;;27.80;36.92
68137;BME280;54939;50.826;9.030;2022-08-25T00:46:15;98875.25;;;27.79;36.82
68137;BME280;54939;50.826;9.030;2022-08-25T00:46:51;98870.31;;;27.81;36.56
68137;BME280;54939;50.826;9.030;2022-08-25T00:47:23;98875.78;;;27.81;36.58
68137;BME280;54939;50.826;9.030;2022-08-25T00:47:53;98868.66;;;27.80;36.61
68137;BME280;54939;50.826;9.030;2022-08-25T00:48:23;98867.81;;;27.80;36.62
68137;BME280;54939;50.826;9.030;2022-08-25T00:49:50;98868.66;;;27.80;36.69
68137;BME280;54939;50.826;9.030;2022-08-25T00:50:21;98872.22;;;27.81;36.47
68137;BME280;54939;50.826;9.030;2022-08-25T00:50:51;98869.47;;;27.81;36.69
68137;BME280;54939;50.826;9.030;2022-08-25T00:51:24;98873.31;;;27.80;36.63
68137;BME280;54939;50.826;9.030;2022-08-25T00:52:28;98869.47;;;27.81;36.90
68137;BME280;54939;50.826;9.030;2022-08-25T00:53:00;98869.47;;;27.81;36.50
68137;BME280;54939;50.826;9.030;2022-08-25T00:53:31;98874.72;;;27.82;36.55
68137;BME280;54939;50.826;9.030;2022-08-25T00:54:02;98874.13;;;27.80;36.71
68137;BME280;54939;50.826;9.030;2022-08-25T00:54:40;98864.81;;;27.81;36.72
68137;BME280;54939;50.826;9.030;2022-08-25T00:55:15;98873.03;;;27.81;36.84
68137;BME280;54939;50.826;9.030;2022-08-25T00:55:47;98874.97;;;27.81;36.64
68137;BME280;54939;50.826;9.030;2022-08-25T00:56:17;98867.56;;;27.81;36.94
68137;BME280;54939;50.826;9.030;2022-08-25T00:56:48;98861.25;;;27.81;36.83
68137;BME280;54939;50.826;9.030;2022-08-25T00:57:22;98873.03;;;27.81;36.79
68137;BME280;54939;50.826;9.030;2022-08-25T00:57:55;98865.91;;;27.80;36.59
68137;BME280;54939;50.826;9.030;2022-08-25T00:58:26;98867.56;;;27.81;36.59
68137;BME280;54939;50.826;9.030;2022-08-25T00:58:57;98867.81;;;27.80;36.69
68137;BME280;54939;50.826;9.030;2022-08-25T00:59:28;98868.66;;;27.80;36.49
68137;BME280;54939;50.826;9.030;2022-08-25T00:59:59;98866.72;;;27.81;36.48
68137;BME280;54939;50.826;9.030;2022-08-25T01:00:35;98869.75;;;27.79;36.66
68137;BME280;54939;50.826;9.030;2022-08-25T01:01:05;98867.03;;;27.79;36.90
68137;BME280;54939;50.826;9.030;2022-08-25T01:01:35;98865.91;;;27.80;36.60
68137;BME280;54939;50.826;9.030;2022-08-25T01:02:08;98867.81;;;27.80;36.58
68137;BME280;54939;50.826;9.030;2022-08-25T01:02:38;98868.94;;;27.79;36.58
68137;BME280;54939;50.826;9.030;2022-08-25T01:03:09;98870.84;;;27.78;36.68
68137;BME280;54939;50.826;9.030;2022-08-25T01:03:40;98872.75;;;27.78;36.69
68137;BME280;54939;50.826;9.030;2022-08-25T01:04:10;98868.34;;;27.77;36.69
68137;BME280;54939;50.826;9.030;2022-08-25T01:11:27;98864.53;;;27.78;36.93
68137;BME280;54939;50.826;9.030;2022-08-25T01:11:57;98859.88;;;27.78;36.65
68137;BME280;54939;50.826;9.030;2022-08-25T01:12:28;98863.69;;;27.77;36.80
68137;BME280;54939;50.826;9.030;2022-08-25T01:13:02;98858.22;;;27.77;36.97
68137;BME280;54939;50.826;9.030;2022-08-25T01:13:36;98862.63;;;27.78;36.70
68137;BME280;54939;50.826;9.030;2022-08-25T01:14:08;98861.78;;;27.78;36.94
68137;BME280;54939;50.826;9.030;2022-08-25T01:14:38;98861.78;;;27.78;36.96
68137;BME280;54939;50.826;9.030;2022-08-25T01:15:09;98855.47;;;27.77;37.10
68137;BME280;54939;50.826;9.030;2022-08-25T01:15:40;98867.53;;;27.76;37.00
68137;BME280;54939;50.826;9.030;2022-08-25T01:16:11;98849.97;;;27.77;36.91
68137;BME280;54939;50.826;9.030;2022-08-25T01:16:42;98859.03;;;27.78;36.68
68137;BME280;54939;50.826;9.030;2022-08-25T01:17:12;98855.47;;;27.77;36.68
68137;BME280;54939;50.826;9.030;2022-08-25T01:17:49;98855.47;;;27.77;36.79
68137;BME280;54939;50.826;9.030;2022-08-25T01:18:20;98857.38;;;27.77;36.90
68137;BME280;54939;50.826;9.030;2022-08-25T01:18:52;98858.22;;;27.77;36.91
68137;BME280;54939;50.826;9.030;2022-08-25T01:19:22;98850.25;;;27.76;36.92
68137;BME280;54939;50.826;9.030;2022-08-25T01:19:54;98859.28;;;27.76;36.95
68137;BME280;54939;50.826;9.030;2022-08-25T01:20:25;98858.47;;;27.76;36.71
68137;BME280;54939;50.826;9.030;2022-08-25T01:20:57;98852.97;;;27.76;36.71
68137;BME280;54939;50.826;9.030;2022-08-25T01:21:29;98855.72;;;27.76;36.97
68137;BME280;54939;50.826;9.030;2022-08-25T01:22:00;98855.72;;;27.76;36.75
68137;BME280;54939;50.826;9.030;2022-08-25T01:22:30;98861.22;;;27.76;36.98
68137;BME280;54939;50.826;9.030;2022-08-25T01:23:01;98852.97;;;27.76;36.98
68137;BME280;54939;50.826;9.030;2022-08-25T01:23:31;98852.97;;;27.76;37.01
68137;BME280;54939;50.826;9.030;2022-08-25T01:24:01;98862.03;;;27.76;36.92
68137;BME280;54939;50.826;9.030;2022-08-25T01:24:37;98855.72;;;27.76;36.59
68137;BME280;54939;50.826;9.030;2022-08-25T01:26:07;98862.03;;;27.76;36.79
68137;BME280;54939;50.826;9.030;2022-08-25T01:26:37;98857.63;;;27.75;36.68
68137;BME280;54939;50.826;9.030;2022-08-25T01:27:07;98863.97;;;27.76;36.61
68137;BME280;54939;50.826;9.030;2022-08-25T01:27:37;98864.78;;;27.76;36.82
68137;BME280;54939;50.826;9.030;2022-08-25T01:28:08;98863.13;;;27.75;36.72
68137;BME280;54939;50.826;9.030;2022-08-25T01:28:39;98864.22;;;27.74;36.62
68137;BME280;54939;50.826;9.030;2022-08-25T01:30:48;98868.03;;;27.73;36.91
68137;BME280;54939;50.826;9.030;2022-08-25T01:31:19;98867.78;;;27.75;36.65
68137;BME280;54939;50.826;9.030;2022-08-25T01:31:50;98868.88;;;27.74;36.88
68137;BME280;54939;50.826;9.030;2022-08-25T01:32:20;98872.44;;;27.74;36.89
68137;BME280;54939;50.826;9.030;2022-08-25T01:32:51;98871.59;;;27.74;36.87
68137;BME280;54939;50.826;9.030;2022-08-25T01:33:21;98868.88;;;27.74;36.63
68137;BME280;54939;50.826;9.030;2022-08-25T01:33:52;98868.03;;;27.73;36.43
68137;BME280;54939;50.826;9.030;2022-08-25T01:34:23;98876.25;;;27.73;36.65
68137;BME280;54939;50.826;9.030;2022-08-25T01:34:53;98869.69;;;27.74;36.83
68137;BME280;54939;50.826;9.030;2022-08-25T01:35:24;98870.53;;;27.75;37.06
68137;BME280;54939;50.826;9.030;2022-08-25T01:35:54;98870.78;;;27.73;36.98
68137;BME280;54939;50.826;9.030;2022-08-25T01:36:25;98872.69;;;27.73;36.91
68137;BME280;54939;50.826;9.030;2022-08-25T01:36:56;98866.13;;;27.74;36.53
68137;BME280;54939;50.826;9.030;2022-08-25T01:37:27;98875.44;;;27.73;36.44
68137;BME280;54939;50.826;9.030;2022-08-25T01:37:58;98869.94;;;27.73;36.52
68137;BME280;54939;50.826;9.030;2022-08-25T01:38:28;98869.94;;;27.73;36.35
68137;BME280;54939;50.826;9.030;2022-08-25T01:38:59;98877.38;;;27.72;37.01
68137;BME280;54939;50.826;9.030;2022-08-25T01:39:29;98869.16;;;27.72;36.83
68137;BME280;54939;50.826;9.030;2022-08-25T01:40:00;98868.31;;;27.72;36.61
68137;BME280;54939;50.826;9.030;2022-08-25T01:40:30;98863.66;;;27.72;36.80
68137;BME280;54939;50.826;9.030;2022-08-25T01:41:01;98868.31;;;27.72;36.50
68137;BME280;54939;50.826;9.030;2022-08-25T01:41:38;98869.16;;;27.72;36.77
68137;BME280;54939;50.826;9.030;2022-08-25T01:42:17;98872.97;;;27.71;36.93
68137;BME280;54939;50.826;9.030;2022-08-25T01:42:53;98867.75;;;27.70;36.83
68137;BME280;54939;50.826;9.030;2022-08-25T01:43:30;98871.31;;;27.70;37.08
68137;BME280;54939;50.826;9.030;2022-08-25T01:44:04;98871.06;;;27.72;36.49
68137;BME280;54939;50.826;9.030;2022-08-25T01:44:39;98865.56;;;27.72;36.81
68137;BME280;54939;50.826;9.030;2022-08-25T01:45:09;98866.66;;;27.71;36.55
68137;BME280;54939;50.826;9.030;2022-08-25T01:45:42;98866.66;;;27.71;36.70
68137;BME280;54939;50.826;9.030;2022-08-25T01:46:12;98871.06;;;27.72;36.92
68137;BME280;54939;50.826;9.030;2022-08-25T01:46:43;98866.41;;;27.72;36.53
68137;BME280;54939;50.826;9.030;2022-08-25T01:47:13;98865.56;;;27.72;36.62
68137;BME280;54939;50.826;9.030;2022-08-25T01:47:44;98863.66;;;27.72;36.71
68137;BME280;54939;50.826;9.030;2022-08-25T01:48:14;98864.75;;;27.71;36.83
68137;BME280;54939;50.826;9.030;2022-08-25T01:48:45;98862.00;;;27.71;36.80
68137;BME280;54939;50.826;9.030;2022-08-25T01:49:15;98862.00;;;27.71;36.67
68137;BME280;54939;50.826;9.030;2022-08-25T01:49:45;98862.00;;;27.71;36.29
68137;BME280;54939;50.826;9.030;2022-08-25T01:50:15;98865.84;;;27.70;36.57
68137;BME280;54939;50.826;9.030;2022-08-25T01:50:46;98867.50;;;27.71;36.94
68137;BME280;54939;50.826;9.030;2022-08-25T01:51:16;98858.44;;;27.71;36.33
68137;BME280;54939;50.826;9.030;2022-08-25T01:51:56;98869.41;;;27.71;36.51
68137;BME280;54939;50.826;9.030;2022-08-25T01:53:07;98854.88;;;27.70;36.76
68137;BME280;54939;50.826;9.030;2022-08-25T01:53:40;98862.00;;;27.71;36.74
68137;BME280;54939;50.826;9.030;2022-08-25T01:54:10;98865.00;;;27.70;36.75
68137;BME280;54939;50.826;9.030;2022-08-25T01:54:40;98866.66;;;27.71;36.83
68137;BME280;54939;50.826;9.030;2022-08-25T01:55:11;98861.19;;;27.71;36.65
68137;BME280;54939;50.826;9.030;2022-08-25T01:55:41;98855.94;;;27.69;36.47
68137;BME280;54939;50.826;9.030;2022-08-25T01:56:20;98858.69;;;27.69;36.85
68137;BME280;54939;50.826;9.030;2022-08-25T01:56:50;98857.03;;;27.68;36.60
68137;BME280;54939;50.826;9.030;2022-08-25T01:57:20;98859.78;;;27.68;36.21
68137;BME280;54939;50.826;9.030;2022-08-25T01:57:51;98858.94;;;27.68;36.66
68137;BME280;54939;50.826;9.030;2022-08-25T01:58:23;98855.38;;;27.67;36.89
68137;BME280;54939;50.826;9.030;2022-08-25T01:58:53;98862.50;;;27.68;36.88
68137;BME280;54939;50.826;9.030;2022-08-25T01:59:23;98861.44;;;27.69;36.55
68137;BME280;54939;50.826;9.030;2022-08-25T01:59:55;98864.19;;;27.69;36.67
68137;BME280;54939;50.826;9.030;2022-08-25T02:00:25;98852.38;;;27.69;36.77
68137;BME280;54939;50.826;9.030;2022-08-25T02:00:56;98864.19;;;27.69;36.48
68137;BME280;54939;50.826;9.030;2022-08-25T02:01:26;98863.34;;;27.69;36.53
68137;BME280;54939;50.826;9.030;2022-08-25T02:01:57;98860.59;;;27.69;36.59
68137;BME280;54939;50.826;9.030;2022-08-25T02:02:27;98860.03;;;27.67;36.65
68137;BME280;54939;50.826;9.030;2022-08-25T02:02:57;98860.84;;;27.67;36.69
68137;BME280;54939;50.826;9.030;2022-08-25T02:03:28;98857.84;;;27.69;37.09
68137;BME280;54939;50.826;9.030;2022-08-25T02:03:59;98855.38;;;27.67;36.88
68137;BME280;54939;50.826;9.030;2022-08-25T02:04:30;98858.09;;;27.67;36.90
68137;BME280;54939;50.826;9.030;2022-08-25T02:05:01;98854.28;;;27.68;36.93
68137;BME280;54939;50.826;9.030;2022-08-25T02:05:31;98852.38;;;27.69;36.91
68137;BME280;54939;50.826;9.030;2022-08-25T02:06:01;98854.28;;;27.68;37.10
68137;BME280;54939;50.826;9.030;2022-08-25T02:06:32;98856.78;;;27.70;36.63
68137;BME280;54939;50.826;9.030;2022-08-25T02:07:03;98853.19;;;27.69;36.65
68137;BME280;54939;50.826;9.030;2022-08-25T02:07:35;98849.63;;;27.69;37.05
68137;BME280;54939;50.826;9.030;2022-08-25T02:08:05;98850.47;;;27.69;36.47
68137;BME280;54939;50.826;9.030;2022-08-25T02:08:35;98857.84;;;27.69;36.38
68137;BME280;54939;50.826;9.030;2022-08-25T02:09:09;98852.38;;;27.69;36.84
68137;BME280;54939;50.826;9.030;2022-08-25T02:09:40;98852.38;;;27.69;37.04
68137;BME280;54939;50.826;9.030;2022-08-25T02:10:11;98854.28;;;27.68;36.83
68137;BME280;54939;50.826;9.030;2022-08-25T02:10:41;98853.19;;;27.69;36.73
68137;BME280;54939;50.826;9.030;2022-08-25T02:11:12;98853.19;;;27.69;36.72
68137;BME280;54939;50.826;9.030;2022-08-25T02:11:44;98855.94;;;27.69;36.58
68137;BME280;54939;50.826;9.030;2022-08-25T02:12:15;98857.84;;;27.69;36.74
68137;BME280;54939;50.826;9.030;2022-08-25T02:12:45;98857.03;;;27.68;37.19
68137;BME280;54939;50.826;9.030;2022-08-25T02:13:15;98849.88;;;27.67;36.58
68137;BME280;54939;50.826;9.030;2022-08-25T02:13:46;98857.03;;;27.68;36.87
68137;BME280;54939;50.826;9.030;2022-08-25T02:14:16;98856.19;;;27.68;37.19
68137;BME280;54939;50.826;9.030;2022-08-25T02:14:48;98854.81;;;27.65;36.96
68137;BME280;54939;50.826;9.030;2022-08-25T02:15:18;98853.72;;;27.66;37.02
68137;BME280;54939;50.826;9.030;2022-08-25T02:15:50;98855.38;;;27.67;37.12
68137;BME280;54939;50.826;9.030;2022-08-25T02:16:22;98857.28;;;27.67;36.81
68137;BME280;54939;50.826;9.030;2022-08-25T02:16:54;98855.38;;;27.67;37.01
68137;BME280;54939;50.826;9.030;2022-08-25T02:17:24;98860.84;;;27.67;36.80
68137;BME280;54939;50.826;9.030;2022-08-25T02:17:54;98851.53;;;27.68;36.75
68137;BME280;54939;50.826;9.030;2022-08-25T02:18:24;98852.63;;;27.67;36.65
68137;BME280;54939;50.826;9.030;2022-08-25T02:18:55;98856.19;;;27.68;36.74
68137;BME280;54939;50.826;9.030;2022-08-25T02:19:25;98849.06;;;27.67;37.11
68137;BME280;54939;50.826;9.030;2022-08-25T02:19:55;98858.94;;;27.68;36.58
68137;BME280;54939;50.826;9.030;2022-08-25T02:20:26;98854.28;;;27.68;36.33
68137;BME280;54939;50.826;9.030;2022-08-25T02:20:56;98857.03;;;27.68;37.19
68137;BME280;54939;50.826;9.030;2022-08-25T02:21:26;98851.78;;;27.67;36.68
68137;BME280;54939;50.826;9.030;2022-08-25T02:21:57;98854.53;;;27.67;36.81
68137;BME280;54939;50.826;9.030;2022-08-25T02:22:28;98853.72;;;27.66;36.75
68137;BME280;54939;50.826;9.030;2022-08-25T02:22:58;98849.34;;;27.65;36.87
68137;BME280;54939;50.826;9.030;2022-08-25T02:23:28;98851.25;;;27.65;36.80
68137;BME280;54939;50.826;9.030;2022-08-25T02:23:58;98851.25;;;27.65;36.59
68137;BME280;54939;50.826;9.030;2022-08-25T02:24:28;98856.44;;;27.66;36.48
68137;BME280;54939;50.826;9.030;2022-08-25T02:24:58;98852.06;;;27.65;36.80
68137;BME280;54939;50.826;9.030;2022-08-25T02:25:29;98852.06;;;27.65;36.67
68137;BME280;54939;50.826;9.030;2022-08-25T02:25:59;98857.56;;;27.65;36.86
68137;BME280;54939;50.826;9.030;2022-08-25T02:26:29;98851.25;;;27.65;36.51
68137;BME280;54939;50.826;9.030;2022-08-25T02:26:59;98852.91;;;27.66;36.30
68137;BME280;54939;50.826;9.030;2022-08-25T02:27:30;98853.16;;;27.64;36.37
68137;BME280;54939;50.826;9.030;2022-08-25T02:28:01;98854.81;;;27.65;36.40
68137;BME280;54939;50.826;9.030;2022-08-25T02:28:31;98852.06;;;27.65;37.00
68137;BME280;54939;50.826;9.030;2022-08-25T02:29:01;98854.00;;;27.65;36.68
68137;BME280;54939;50.826;9.030;2022-08-25T02:29:31;98852.34;;;27.64;36.98
68137;BME280;54939;50.826;9.030;2022-08-25T02:30:03;98852.34;;;27.64;37.00
68137;BME280;54939;50.826;9.030;2022-08-25T02:30:34;98844.09;;;27.64;36.41
68137;BME280;54939;50.826;9.030;2022-08-25T02:31:05;98853.16;;;27.64;37.08
68137;BME280;54939;50.826;9.030;2022-08-25T02:31:35;98851.50;;;27.63;36.80
68137;BME280;54939;50.826;9.030;2022-08-25T02:32:06;98854.25;;;27.63;36.88
68137;BME280;54939;50.826;9.030;2022-08-25T02:32:36;98847.09;;;27.62;37.00
68137;BME280;54939;50.826;9.030;2022-08-25T02:33:07;98847.94;;;27.63;36.91
68137;BME280;54939;50.826;9.030;2022-08-25T02:33:37;98854.25;;;27.63;36.92
68137;BME280;54939;50.826;9.030;2022-08-25T02:34:08;98847.94;;;27.63;37.01
68137;BME280;54939;50.826;9.030;2022-08-25T02:34:38;98846.84;;;27.64;37.01
68137;BME280;54939;50.826;9.030;2022-08-25T02:35:10;98847.94;;;27.63;36.82
68137;BME280;54939;50.826;9.030;2022-08-25T02:35:40;98846.84;;;27.64;36.71
68137;BME280;54939;50.826;9.030;2022-08-25T02:36:11;98848.75;;;27.63;36.84
68137;BME280;54939;50.826;9.030;2022-08-25T02:36:41;98838.63;;;27.64;36.55
68137;BME280;54939;50.826;9.030;2022-08-25T02:37:12;98840.53;;;27.63;36.84
68137;BME280;54939;50.826;9.030;2022-08-25T02:37:43;98847.94;;;27.63;36.59
68137;BME280;54939;50.826;9.030;2022-08-25T02:38:13;98845.19;;;27.63;36.54
68137;BME280;54939;50.826;9.030;2022-08-25T02:38:43;98846.03;;;27.63;36.65
68137;BME280;54939;50.826;9.030;2022-08-25T02:39:13;98844.34;;;27.62;36.60
68137;BME280;54939;50.826;9.030;2022-08-25T02:39:43;98846.03;;;27.63;36.84
68137;BME280;54939;50.826;9.030;2022-08-25T02:40:14;98841.63;;;27.62;36.51
68137;BME280;54939;50.826;9.030;2022-08-25T02:40:44;98843.28;;;27.63;36.81
68137;BME280;54939;50.826;9.030;2022-08-25T02:41:16;98840.53;;;27.63;36.73
68137;BME280;54939;50.826;9.030;2022-08-25T02:41:48;98843.28;;;27.63;36.90
68137;BME280;54939;50.826;9.030;2022-08-25T02:42:19;98841.63;;;27.62;36.75
68137;BME280;54939;50.826;9.030;2022-08-25T02:42:50;98832.56;;;27.62;36.50
68137;BME280;54939;50.826;9.030;2022-08-25T02:43:21;98844.34;;;27.62;36.64
68137;BME280;54939;50.826;9.030;2022-08-25T02:43:51;98835.31;;;27.62;36.66
68137;BME280;54939;50.826;9.030;2022-08-25T02:44:21;98845.19;;;27.63;36.40
68137;BME280;54939;50.826;9.030;2022-08-25T02:44:52;98844.34;;;27.62;36.51
68137;BME280;54939;50.826;9.030;2022-08-25T02:45:22;98846.28;;;27.62;36.84
68137;BME280;54939;50.826;9.030;2022-08-25T02:45:53;98849.00;;;27.62;36.38
68137;BME280;54939;50.826;9.030;2022-08-25T02:46:24;98850.09;;;27.61;36.98
68137;BME280;54939;50.826;9.030;2022-08-25T02:46:54;98847.34;;;27.61;36.95
68137;BME280;54939;50.826;9.030;2022-08-25T02:47:24;98844.63;;;27.61;36.59
68137;BME280;54939;50.826;9.030;2022-08-25T02:47:55;98854.75;;;27.60;36.65
68137;BME280;54939;50.826;9.030;2022-08-25T02:48:25;98852.00;;;27.60;36.87
68137;BME280;54939;50.826;9.030;2022-08-25T02:48:55;98847.59;;;27.59;36.45
68137;BME280;54939;50.826;9.030;2022-08-25T02:49:26;98847.59;;;27.59;36.61
68137;BME280;54939;50.826;9.030;2022-08-25T02:49:57;98851.19;;;27.60;36.56
68137;BME280;54939;50.826;9.030;2022-08-25T02:50:27;98854.75;;;27.60;36.32
68137;BME280;54939;50.826;9.030;2022-08-25T02:50:59;98853.94;;;27.60;36.33
68137;BME280;54939;50.826;9.030;2022-08-25T02:51:29;98857.25;;;27.62;36.84
68137;BME280;54939;50.826;9.030;2022-08-25T02:52:00;98853.94;;;27.60;36.67
68137;BME280;54939;50.826;9.030;2022-08-25T02:52:31;98852.84;;;27.61;36.78
68137;BME280;54939;50.826;9.030;2022-08-25T02:53:01;98860.25;;;27.60;36.95
68137;BME280;54939;50.826;9.030;2022-08-25T02:53:31;98849.28;;;27.60;36.79
68137;BME280;54939;50.826;9.030;2022-08-25T02:54:02;98858.56;;;27.59;36.76
68137;BME280;54939;50.826;9.030;2022-08-25T02:54:33;98850.34;;;27.59;36.36
68137;BME280;54939;50.826;9.030;2022-08-25T02:55:05;98857.78;;;27.59;37.02
68137;BME280;54939;50.826;9.030;2022-08-25T02:55:35;98855.84;;;27.59;36.59
68137;BME280;54939;50.826;9.030;2022-08-25T02:56:07;98856.94;;;27.58;37.06
68137;BME280;54939;50.826;9.030;2022-08-25T02:56:38;98855.03;;;27.59;36.86